createdAt,value
2023-04-01T00:03:22.036Z,14.47
2023-04-01T00:08:19.109Z,14.50
2023-04-01T00:13:16.109Z,14.59
2023-04-01T00:18:14.112Z,14.62
2023-04-01T00:23:10.757Z,14.57
2023-04-01T00:28:07.311Z,14.56
2023-04-01T00:33:04.067Z,14.57
2023-04-01T00:38:01.553Z,14.41
2023-04-01T00:42:58.481Z,14.46
2023-04-01T00:47:55.724Z,14.42
2023-04-01T00:52:53.304Z,14.57
2023-04-01T00:57:51.698Z,14.56
2023-04-01T01:02:50.604Z,14.37
2023-04-01T01:07:53.395Z,14.37
2023-04-01T01:12:58.607Z,14.35
2023-04-01T01:17:58.867Z,14.42
2023-04-01T01:23:11.143Z,14.28
2023-04-01T01:28:16.320Z,14.26
2023-04-01T01:33:19.213Z,14.31
2023-04-01T01:38:18.165Z,14.20
2023-04-01T01:43:26.513Z,14.12
2023-04-01T01:48:24.844Z,14.25
2023-04-01T01:53:22.408Z,14.21
2023-04-01T01:58:21.381Z,14.21
2023-04-01T02:03:20.624Z,14.00
2023-04-01T02:08:23.457Z,14.03
2023-04-01T02:13:24.146Z,13.98
2023-04-01T02:18:21.279Z,13.82
2023-04-01T02:23:18.167Z,13.73
2023-04-01T02:28:17.644Z,13.58
2023-04-01T02:33:15.374Z,13.64
2023-04-01T02:38:12.179Z,13.54
2023-04-01T02:43:08.969Z,13.49
2023-04-01T02:48:06.438Z,13.26
2023-04-01T02:53:06.519Z,13.23
2023-04-01T02:58:03.230Z,13.20
2023-04-01T03:03:00.967Z,13.30
2023-04-01T03:07:58.001Z,13.45
2023-04-01T03:12:55.263Z,13.31
2023-04-01T03:17:52.223Z,13.50
2023-04-01T03:22:48.984Z,13.29
2023-04-01T03:27:46.702Z,13.32
2023-04-01T03:32:44.109Z,13.26
2023-04-01T03:37:44.315Z,13.13
2023-04-01T03:42:41.152Z,13.19
2023-04-01T03:47:39.310Z,13.13
2023-04-01T03:52:36.787Z,13.13
2023-04-01T03:57:33.661Z,13.27
2023-04-01T04:02:38.208Z,13.35
2023-04-01T04:07:36.241Z,13.56
2023-04-01T04:12:35.946Z,13.57
2023-04-01T04:17:32.947Z,13.49
2023-04-01T04:22:29.613Z,13.25
2023-04-01T04:27:26.998Z,13.33
2023-04-01T04:32:32.771Z,12.98
2023-04-01T04:37:29.704Z,12.95
2023-04-01T04:42:27.318Z,12.67
2023-04-01T04:47:30.529Z,12.47
2023-04-01T04:52:27.265Z,12.39
2023-04-01T04:57:24.159Z,12.45
2023-04-01T05:02:25.781Z,12.66
2023-04-01T05:07:23.007Z,12.73
2023-04-01T05:12:19.701Z,12.93
2023-04-01T05:17:29.715Z,13.08
2023-04-01T05:22:26.652Z,12.95
2023-04-01T05:27:23.513Z,13.15
2023-04-01T05:32:20.487Z,13.30
2023-04-01T05:37:18.174Z,13.43
2023-04-01T05:42:16.228Z,13.39
2023-04-01T05:47:12.981Z,13.37
2023-04-01T05:52:09.765Z,13.46
2023-04-01T05:57:08.117Z,13.55
2023-04-01T06:02:05.010Z,13.63
2023-04-01T06:07:02.160Z,13.80
2023-04-01T06:12:11.924Z,13.81
2023-04-01T06:17:25.880Z,13.98
2023-04-01T06:22:34.642Z,14.05
2023-04-01T06:27:43.380Z,14.18
2023-04-01T06:32:55.048Z,14.22
2023-04-01T06:37:57.874Z,14.16
2023-04-01T06:43:01.940Z,13.89
2023-04-01T06:48:28.992Z,13.80
2023-04-01T06:53:55.413Z,13.88
2023-04-01T06:59:13.373Z,13.86
2023-04-01T07:04:15.499Z,13.93
2023-04-01T07:09:15.183Z,13.94
2023-04-01T07:14:33.114Z,13.76
2023-04-01T07:19:33.278Z,13.77
2023-04-01T07:24:35.051Z,13.83
2023-04-01T07:29:35.372Z,13.87
2023-04-01T07:34:38.378Z,13.85
2023-04-01T07:39:42.411Z,13.78
2023-04-01T07:44:51.073Z,13.87
2023-04-01T07:50:05.407Z,14.04
2023-04-01T07:55:11.903Z,13.98
2023-04-01T08:00:13.294Z,14.13
2023-04-01T08:05:27.623Z,14.51
2023-04-01T08:10:27.929Z,14.58
2023-04-01T08:16:06.851Z,14.80
2023-04-01T08:21:22.065Z,14.45
2023-04-01T08:26:22.993Z,14.59
2023-04-01T08:31:24.324Z,14.60
2023-04-01T08:36:24.438Z,14.74
2023-04-01T08:41:39.396Z,15.00
2023-04-01T08:47:29.033Z,14.87
2023-04-01T08:52:33.263Z,15.04
2023-04-01T08:57:39.257Z,15.13
2023-04-01T09:03:38.317Z,15.29
2023-04-01T09:08:45.488Z,15.34
2023-04-01T09:13:56.084Z,15.32
2023-04-01T09:19:02.574Z,15.44
2023-04-01T09:24:24.814Z,15.46
2023-04-01T09:29:32.602Z,15.58
2023-04-01T09:34:54.410Z,15.74
2023-04-01T09:40:18.680Z,15.81
2023-04-01T09:45:24.830Z,15.78
2023-04-01T09:56:41.433Z,16.00
2023-04-01T10:01:48.650Z,16.06
2023-04-01T10:06:58.452Z,15.97
2023-04-01T10:12:13.390Z,16.07
2023-04-01T10:17:25.164Z,16.11
2023-04-01T10:22:33.056Z,16.17
2023-04-01T10:27:52.259Z,16.23
2023-04-01T10:33:20.280Z,16.25
2023-04-01T10:38:47.280Z,16.34
2023-04-01T10:44:01.770Z,16.35
2023-04-01T10:49:27.135Z,16.40
2023-04-01T10:54:44.512Z,16.31
2023-04-01T11:00:44.872Z,16.18
2023-04-01T11:06:31.311Z,16.18
2023-04-01T11:11:46.858Z,16.16
2023-04-01T11:16:57.474Z,16.00
2023-04-01T11:22:19.831Z,16.01
2023-04-01T11:27:31.776Z,16.10
2023-04-01T11:32:59.924Z,16.08
2023-04-01T11:38:16.575Z,15.81
2023-04-01T11:43:44.890Z,15.84
2023-04-01T11:49:03.828Z,16.06
2023-04-01T11:54:11.235Z,15.80
2023-04-01T11:59:27.487Z,15.82
2023-04-01T12:04:31.290Z,16.12
2023-04-01T12:09:44.753Z,15.64
2023-04-01T12:14:45.481Z,15.79
2023-04-01T12:19:46.183Z,15.77
2023-04-01T12:24:47.640Z,15.72
2023-04-01T12:30:02.228Z,16.23
2023-04-01T12:35:12.739Z,16.02
2023-04-01T12:40:21.894Z,16.12
2023-04-01T12:45:32.399Z,16.18
2023-04-01T12:50:52.056Z,16.38
2023-04-01T12:55:52.813Z,16.08
2023-04-01T13:01:06.222Z,15.97
2023-04-01T13:06:21.128Z,16.11
2023-04-01T13:11:24.357Z,15.80
2023-04-01T13:16:30.846Z,15.93
2023-04-01T13:21:37.214Z,15.84
2023-04-01T13:26:39.156Z,15.76
2023-04-01T13:31:40.886Z,16.21
2023-04-01T13:36:42.915Z,16.22
2023-04-01T13:41:48.105Z,16.27
2023-04-01T13:47:03.389Z,16.23
2023-04-01T13:52:19.098Z,16.36
2023-04-01T13:57:24.740Z,16.14
2023-04-01T14:02:40.837Z,16.45
2023-04-01T14:07:48.485Z,16.54
2023-04-01T14:12:51.588Z,16.43
2023-04-01T14:18:07.494Z,16.46
2023-04-01T14:23:18.939Z,16.24
2023-04-01T14:28:20.181Z,15.96
2023-04-01T14:33:22.293Z,15.97
2023-04-01T14:38:26.993Z,16.07
2023-04-01T14:43:31.711Z,16.09
2023-04-01T14:48:33.140Z,15.99
2023-04-01T14:53:32.478Z,15.36
2023-04-01T14:58:41.343Z,15.60
2023-04-01T15:03:43.651Z,15.56
2023-04-01T15:08:48.249Z,15.70
2023-04-01T15:13:54.408Z,15.70
2023-04-01T15:18:54.121Z,15.70
2023-04-01T15:23:55.433Z,15.63
2023-04-01T15:29:01.575Z,15.79
2023-04-01T15:34:07.394Z,15.75
2023-04-01T15:39:12.363Z,15.81
2023-04-01T15:44:23.835Z,15.88
2023-04-01T15:49:34.591Z,15.85
2023-04-01T15:55:04.378Z,15.89
2023-04-01T16:00:11.238Z,15.86
2023-04-01T16:05:21.618Z,15.79
2023-04-01T16:10:36.192Z,15.70
2023-04-01T16:15:38.626Z,15.76
2023-04-01T16:20:45.516Z,15.67
2023-04-01T16:25:46.944Z,15.40
2023-04-01T16:30:49.955Z,15.13
2023-04-01T16:35:49.887Z,14.94
2023-04-01T16:40:51.374Z,14.51
2023-04-01T16:45:54.140Z,14.30
2023-04-01T16:50:55.852Z,14.19
2023-04-01T16:55:57.320Z,14.17
2023-04-01T17:00:56.421Z,14.47
2023-04-01T17:06:05.272Z,14.69
2023-04-01T17:11:07.779Z,14.82
2023-04-01T17:16:09.076Z,15.11
2023-04-01T17:21:08.734Z,15.17
2023-04-01T17:26:16.998Z,15.18
2023-04-01T17:31:24.327Z,15.09
2023-04-01T17:36:38.927Z,14.81
2023-04-01T17:41:43.112Z,14.52
2023-04-01T17:46:46.111Z,14.56
2023-04-01T17:51:47.467Z,14.28
2023-04-01T17:56:50.727Z,14.24
2023-04-01T18:01:55.356Z,14.10
2023-04-01T18:07:08.526Z,14.27
2023-04-01T18:12:18.730Z,14.03
2023-04-01T18:17:20.739Z,14.03
2023-04-01T18:22:21.863Z,14.01
2023-04-01T18:27:22.762Z,14.19
2023-04-01T18:32:25.329Z,14.19
2023-04-01T18:37:26.681Z,14.14
2023-04-01T18:42:30.480Z,13.77
2023-04-01T18:47:31.565Z,13.51
2023-04-01T18:52:36.033Z,12.99
2023-04-01T18:57:40.570Z,13.01
2023-04-01T19:02:40.129Z,12.40
2023-04-01T19:07:45.212Z,12.51
2023-04-01T19:12:49.334Z,12.82
2023-04-01T19:17:52.355Z,12.96
2023-04-01T19:23:04.751Z,12.72
2023-04-01T19:28:08.271Z,12.74
2023-04-01T19:33:11.047Z,12.75
2023-04-01T19:38:12.872Z,12.78
2023-04-01T19:43:12.424Z,12.59
2023-04-01T19:48:15.073Z,12.69
2023-04-01T19:53:17.311Z,12.74
2023-04-01T19:58:18.063Z,12.70
2023-04-01T20:03:22.200Z,12.64
2023-04-01T20:08:25.099Z,12.98
2023-04-01T20:13:27.063Z,12.80
2023-04-01T20:18:27.889Z,12.87
2023-04-01T20:23:34.638Z,13.11
2023-04-01T20:28:33.650Z,13.16
2023-04-01T20:33:38.595Z,12.91
2023-04-01T20:38:58.810Z,12.53
2023-04-01T20:43:59.328Z,12.50
2023-04-01T20:49:13.523Z,12.29
2023-04-01T20:54:23.024Z,11.92
2023-04-01T20:59:32.790Z,11.72
2023-04-01T21:04:35.074Z,11.89
2023-04-01T21:09:40.454Z,11.96
2023-04-01T21:14:47.905Z,12.35
2023-04-01T21:19:58.447Z,12.28
2023-04-01T21:24:59.762Z,12.20
2023-04-01T21:29:59.965Z,12.26
2023-04-01T21:35:01.262Z,11.82
2023-04-01T21:40:13.544Z,11.67
2023-04-01T21:45:21.811Z,11.61
2023-04-01T21:50:40.403Z,11.48
2023-04-01T21:56:04.064Z,10.96
2023-04-01T22:01:09.669Z,10.88
2023-04-01T22:06:10.265Z,10.83
2023-04-01T22:11:10.958Z,10.73
2023-04-01T22:16:14.043Z,10.69
2023-04-01T22:21:13.624Z,10.63
2023-04-01T22:26:13.982Z,10.77
2023-04-01T22:31:17.251Z,10.75
2023-04-01T22:36:19.249Z,10.84
2023-04-01T22:41:20.482Z,10.52
2023-04-01T22:46:24.146Z,10.58
2023-04-01T22:51:23.915Z,10.61
2023-04-01T22:56:22.912Z,10.76
2023-04-01T23:01:23.500Z,10.97
2023-04-01T23:06:25.301Z,10.95
2023-04-01T23:11:26.013Z,10.73
2023-04-01T23:16:27.103Z,10.69
2023-04-01T23:21:29.371Z,10.78
2023-04-01T23:26:32.870Z,10.70
2023-04-01T23:31:31.596Z,10.62
2023-04-01T23:36:29.984Z,10.60
2023-04-01T23:41:28.378Z,10.65
2023-04-01T23:46:25.763Z,10.78
2023-04-01T23:51:23.840Z,10.89
2023-04-01T23:56:21.429Z,10.86
